Flight Track Log - Related Links

Times and Time Zones

All times are in EDT time to prevent confusion due to time zone crossing. See the SWA565 flight status page for this flight to view local times or setup timezone preferences in your user account.

Time Position Orientation Groundspeed Altitude Reporting Facility
EDT Latitude Longitude Course Direction KTS MPH feet Rate Location/Type
Tue 01:57:20 AM 36.1217 -115.1983 291° West 199 229 5,200  Level Los Angeles Center
Tue 01:58:09 AM 36.1117 -115.2614 259° West 234 269 7,300 2,455 Climbing Los Angeles Center
Tue 01:59:10 AM 36.0575 -115.3153 219° Southwest 262 302 9,700 1,918 Climbing Los Angeles Center
Tue 02:00:11 AM 35.9753 -115.3569 202° Southwest 301 346 11,200 2,016 Climbing Los Angeles Center
Tue 02:01:12 AM 35.9222 -115.4531 236° Southwest 349 402 13,800 2,579 Climbing Los Angeles Center
Tue 02:02:12 AM 35.9161 -115.5819 267° West 362 417 16,400 2,628 Climbing Los Angeles Center
Tue 02:03:13 AM 35.9092 -115.7078 266° West 366 421 19,100 2,607 Climbing Los Angeles Center
Tue 02:04:14 AM 35.9028 -115.8322 266° West 364 419 21,700 1,820 Climbing Los Angeles Center
Tue 02:05:15 AM 35.8981 -115.9556 267° West 360 414 22,800 1,140 Climbing Los Angeles Center
Tue 02:06:15 AM 35.9639 -116.0469 312° West 393 452 24,000 1,339 Climbing Los Angeles Center
Tue 02:07:16 AM 36.0544 -116.1522 317° Northwest 398 458 25,500 1,377 Climbing Los Angeles Center
Tue 02:08:17 AM 36.1272 -116.2364 317° Northwest 405 466 26,800 1,574 Climbing Los Angeles Center
Tue 02:09:18 AM 36.2094 -116.3314 317° Northwest 406 467 28,700 1,785 Climbing Los Angeles Center
Tue 02:10:18 AM 36.3072 -116.4456 317° Northwest 404 465 30,400 1,736 Climbing Los Angeles Center
Tue 02:11:19 AM 36.3867 -116.5375 317° Northwest 395 455 32,200 1,475 Climbing Los Angeles Center
Tue 02:12:20 AM 36.4636 -116.6261 317° Northwest 382 440 33,400 885 Climbing Los Angeles Center
Tue 02:13:21 AM 36.5369 -116.7133 316° Northwest 384 442 34,000 298 Climbing Los Angeles Center
Tue 02:14:21 AM 36.6250 -116.7933 324° Northwest 393 452 34,000  Level Los Angeles Center
Tue 02:15:22 AM 36.7200 -116.8642 329° Northwest 396 456 34,000  Level Los Angeles Center
Tue 02:16:23 AM 36.8147 -116.9369 328° Northwest 399 459 34,000  Level Los Angeles Center
Tue 02:17:23 AM 36.9092 -117.0086 329° Northwest 397 457 34,000  Level Los Angeles Center
Tue 02:17:57 AM 36.9653 -117.0542 327° Northwest 397 457 34,000  Level Oakland Center
Tue 02:18:58 AM 37.0597 -117.1275 328° Northwest 397 457 34,000  Level Oakland Center
Tue 02:19:58 AM 37.1542 -117.2003 328° Northwest 398 458 34,000  Level Oakland Center
Tue 02:20:59 AM 37.2478 -117.2725 328° Northwest 395 455 34,000  Level Oakland Center
Tue 02:21:59 AM 37.2975 -117.3800 300° West 375 432 34,000  Level Oakland Center
Tue 02:23:00 AM 37.3100 -117.5064 277° West 367 422 34,000  Level Oakland Center
Tue 02:24:00 AM 37.3233 -117.6328 278° West 365 420 34,000  Level Oakland Center
Tue 02:25:01 AM 37.3367 -117.7581 278° West 361 415 34,000  Level Oakland Center
Tue 02:26:01 AM 37.3492 -117.8803 277° West 356 410 34,000  Level Oakland Center
Tue 02:27:02 AM 37.3611 -118.0011 277° West 349 402 34,000  Level Oakland Center
Tue 02:28:02 AM 37.3736 -118.1217 277° West 347 399 34,000  Level Oakland Center
Tue 02:29:03 AM 37.3864 -118.2428 278° West 348 400 34,000  Level Oakland Center
Tue 02:30:03 AM 37.3978 -118.3642 277° West 348 400 34,000  Level Oakland Center
Tue 02:31:04 AM 37.4106 -118.4892 277° West 357 411 34,000  Level Oakland Center
Tue 02:32:04 AM 37.4228 -118.6203 277° West 373 429 34,000  Level Oakland Center
Tue 02:33:05 AM 37.4361 -118.7525 277° West 381 438 34,000  Level Oakland Center
Tue 02:34:05 AM 37.4497 -118.9031 277° West 390 449 34,000  Level Oakland Center
Tue 02:35:05 AM 37.4633 -119.0414 277° West 398 458 34,000  Level Oakland Center
Tue 02:36:06 AM 37.4778 -119.1875 277° West 427 491 34,000  Level Oakland Center
Tue 02:37:06 AM 37.4908 -119.3286 277° West 412 474 34,000  Level Oakland Center
Tue 02:38:07 AM 37.5025 -119.4619 276° West 389 448 34,000  Level Oakland Center
Tue 02:39:07 AM 37.5131 -119.6133 275° West 396 456 34,000 -350 Level Oakland Center
Tue 02:40:07 AM 37.5269 -119.7531 277° West 397 457 33,300 -893 Descending Oakland Center
Tue 02:41:08 AM 37.5375 -119.8933 275° West 402 463 32,200 -645 Descending Oakland Center
Tue 02:42:08 AM 37.5508 -120.0294 277° West 404 465 32,000 -100 Descending Oakland Center
Tue 02:43:08 AM 37.5650 -120.1722 277° West 395 455 32,000  Level Oakland Center
Tue 02:44:09 AM 37.5775 -120.3200 276° West 417 480 32,000  Level Oakland Center
Tue 02:45:09 AM 37.5881 -120.4664 275° West 418 481 32,000 -1,373 Level Oakland Center
Tue 02:46:07 AM 37.6000 -120.6167 276° West 416 479 29,300 -2,602 Descending Northern Cal TRACON
Tue 02:47:02 AM 37.6167 -120.7333 280° West 403 464 27,100 -2,504 Descending Northern Cal TRACON
Tue 02:48:02 AM 37.6167 -120.8833 270° West 405 466 24,500 -2,429 Descending Northern Cal TRACON
Tue 02:49:08 AM 37.6167 -121.0333 270° West 432 497 22,000 -2,818 Descending Northern Cal TRACON
Tue 02:50:14 AM 37.6000 -121.2000 263° West 420 483 18,300 -3,190 Descending Northern Cal TRACON
Tue 02:51:14 AM 37.5833 -121.3333 261° West 407 468 15,300 -3,000 Descending Northern Cal TRACON
Tue 02:52:20 AM 37.5667 -121.4667 261° West 379 436 12,000 -1,955 Descending Northern Cal TRACON
Tue 02:53:26 AM 37.5500 -121.6000 261° West 319 367 11,000 -1,100 Descending Northern Cal TRACON
Tue 02:54:20 AM 37.5500 -121.6833 270° West 272 313 9,800 -1,579 Descending Northern Cal TRACON
Tue 02:55:20 AM 37.5500 -121.7833 270° West 279 321 8,000 -850 Descending Northern Cal TRACON
Tue 02:56:20 AM 37.5500 -121.8667 270° West 247 284 8,100 -526 Climbing Northern Cal TRACON
Tue 02:57:14 AM 37.5333 -121.9500 256° West 257 296 7,000 -1,448 Descending Northern Cal TRACON
Tue 02:59:14 AM 37.5419 -122.1214 274° West 249 287 3,900 -1,236 Descending Oakland Center
Tue 03:01:00 AM 37.5901 -122.3136 302° West  Level FlightAware Approximate
Tue 03:02:15 AM 37.5936 -122.3181 302° West 182 209 800  Level Oakland Center
Tue 03:03:16 AM 37.6142 -122.3631 300° West 161 185 200 -590 Descending Oakland Center
Tue 03:05:00 AM 37.6167 -122.3667 322° Northwest  Level FlightAware Approximate

Login

Don't have an account? Register now (free) for customized features, flight alerts, and more!